Time;durP1;ratioP1;P1;durP2;ratioP2;P2;SDS_P1;SDS_P2;PMS_P1;PMS_P2;Temp;Humidity;BMP_temperature;BMP_pressure;BME280_temperature;BME280_humidity;BME280_pressure;Samples;Min_cycle;Max_cycle;Signal;HPM_P1;HPM_P2
2021/09/24 00:01:01;;;;;;;1.77;0.60;;;14.50;99.90;14.70;100171.00;;;;4970994;28;122890;-70
2021/09/24 00:03:27;;;;;;;1.20;1.10;;;14.60;99.90;14.70;100160.00;;;;4971856;28;94036;-70
2021/09/24 00:05:52;;;;;;;2.30;1.13;;;14.60;99.90;14.70;100149.00;;;;4971970;28;92887;-69
2021/09/24 00:08:19;;;;;;;1.63;0.90;;;14.60;99.90;14.70;100159.00;;;;4943971;28;122821;-69
2021/09/24 00:10:45;;;;;;;2.13;1.10;;;14.60;99.90;14.60;100155.00;;;;4963427;28;93436;-69
2021/09/24 00:13:11;;;;;;;1.40;0.83;;;14.60;99.90;14.60;100174.00;;;;4963352;28;92908;-69
2021/09/24 00:15:37;;;;;;;6.80;1.33;;;14.50;99.90;14.50;100165.00;;;;4972296;28;93642;-70
2021/09/24 00:18:03;;;;;;;3.70;1.30;;;14.40;99.90;14.50;100167.00;;;;4970497;28;123655;-70
2021/09/24 00:20:29;;;;;;;1.90;1.07;;;14.40;99.90;14.40;100178.00;;;;4972149;28;98322;-70
2021/09/24 00:22:54;;;;;;;3.60;1.03;;;14.40;99.90;14.40;100177.00;;;;4970734;28;109300;-70
2021/09/24 00:25:20;;;;;;;3.80;1.37;;;14.40;99.90;14.40;100173.00;;;;4913739;28;1140677;-70
2021/09/24 00:27:46;;;;;;;2.37;1.17;;;14.30;99.90;14.30;100192.00;;;;4972301;28;99989;-69
2021/09/24 00:30:13;;;;;;;2.87;0.70;;;14.30;99.90;14.30;100186.00;;;;4972350;28;94827;-70
2021/09/24 00:32:39;;;;;;;1.53;0.80;;;14.30;99.90;14.20;100192.00;;;;4972511;28;95776;-70
2021/09/24 00:35:05;;;;;;;1.60;0.80;;;14.20;99.90;14.20;100194.00;;;;4973348;28;92800;-69
2021/09/24 00:37:31;;;;;;;9.40;1.37;;;14.10;99.90;14.10;100201.00;;;;4972266;28;98651;-68
2021/09/24 00:39:57;;;;;;;1.53;0.83;;;14.10;99.90;14.10;100202.00;;;;4972099;28;122945;-69
2021/09/24 00:42:22;;;;;;;1.70;1.10;;;14.30;99.90;14.00;100189.00;;;;4972422;28;92746;-68
2021/09/24 00:44:50;;;;;;;2.63;0.80;;;14.00;99.90;14.00;100203.00;;;;4972520;28;108727;-68
2021/09/24 00:47:19;;;;;;;3.17;0.77;;;14.00;99.90;14.00;100204.00;;;;4972877;28;94167;-68
2021/09/24 00:49:47;;;;;;;2.97;0.73;;;13.90;99.90;13.90;100203.00;;;;4972668;28;92832;-68
2021/09/24 00:52:13;;;;;;;1.57;0.63;;;13.90;99.90;13.90;100213.00;;;;4972647;28;93752;-68
2021/09/24 00:54:42;;;;;;;1.37;0.93;;;13.90;99.90;13.80;100221.00;;;;4972205;28;93600;-67
2021/09/24 00:57:08;;;;;;;0.90;0.60;;;13.80;99.90;13.80;100217.00;;;;4971807;28;124295;-67
2021/09/24 00:59:34;;;;;;;2.83;1.20;;;13.80;99.90;13.70;100226.00;;;;4970136;28;100202;-66
2021/09/24 01:02:00;;;;;;;7.83;1.27;;;13.70;99.90;13.70;100227.00;;;;4971921;28;99820;-67
2021/09/24 01:04:26;;;;;;;2.43;1.63;;;13.70;99.90;13.70;100222.00;;;;4971766;28;109883;-67
2021/09/24 01:06:52;;;;;;;2.73;1.13;;;13.70;99.90;13.70;100224.00;;;;4955470;28;93199;-67
2021/09/24 01:09:18;;;;;;;1.77;1.10;;;13.60;99.90;13.70;100226.00;;;;4971611;28;107526;-67
2021/09/24 01:11:44;;;;;;;4.73;0.90;;;13.60;99.90;13.60;100231.00;;;;4973214;28;92986;-68
2021/09/24 01:14:10;;;;;;;1.50;0.80;;;13.60;99.90;13.60;100236.00;;;;4972624;28;93020;-66
2021/09/24 01:16:36;;;;;;;0.90;0.70;;;13.60;99.90;13.60;100231.00;;;;4971911;28;100710;-66
2021/09/24 01:19:03;;;;;;;1.90;0.70;;;13.60;99.90;13.60;100224.00;;;;4970558;28;123648;-67
2021/09/24 01:21:30;;;;;;;3.90;0.90;;;13.60;99.90;13.60;100224.00;;;;4972862;28;92924;-67
2021/09/24 01:23:56;;;;;;;7.40;1.30;;;13.60;99.90;13.70;100223.00;;;;4973836;28;92637;-66
2021/09/24 01:26:22;;;;;;;4.73;1.53;;;13.60;99.90;13.70;100228.00;;;;4974279;28;122657;-67
2021/09/24 01:28:48;;;;;;;2.60;1.00;;;13.60;99.90;13.70;100232.00;;;;4975067;28;93853;-67
2021/09/24 01:31:15;;;;;;;5.37;1.60;;;13.70;99.90;13.70;100231.00;;;;4974903;28;109663;-67
2021/09/24 01:33:46;;;;;;;1.43;1.00;;;13.60;99.90;13.70;100235.00;;;;4975732;28;92641;-66
2021/09/24 01:36:12;;;;;;;3.03;1.10;;;13.60;99.90;13.70;100229.00;;;;4975378;28;93808;-66
2021/09/24 01:38:38;;;;;;;7.00;1.27;;;13.60;99.90;13.60;100232.00;;;;4974340;28;122322;-66
2021/09/24 01:41:06;;;;;;;0.87;0.60;;;13.60;99.90;13.50;100223.00;;;;4975466;28;93658;-67
2021/09/24 01:43:33;;;;;;;1.70;1.10;;;13.50;99.90;13.50;100234.00;;;;4976080;28;93033;-67
2021/09/24 01:45:58;;;;;;;3.43;1.13;;;13.50;99.90;13.50;100225.00;;;;4975777;28;93318;-66
2021/09/24 01:48:24;;;;;;;6.63;1.57;;;13.40;99.90;13.40;100221.00;;;;4974951;28;92870;-66
2021/09/24 01:50:50;;;;;;;1.90;1.10;;;13.40;99.90;13.50;100224.00;;;;4975528;28;93219;-66
2021/09/24 01:53:16;;;;;;;1.77;0.90;;;13.40;99.90;13.50;100235.00;;;;4975101;28;92953;-67
2021/09/24 01:55:42;;;;;;;3.30;1.27;;;13.40;99.90;13.50;100222.00;;;;4974079;28;122820;-66
2021/09/24 01:58:08;;;;;;;3.80;0.83;;;13.40;99.90;13.50;100225.00;;;;4974280;28;122521;-66
2021/09/24 02:00:34;;;;;;;2.93;1.07;;;13.40;99.90;13.40;100236.00;;;;4975323;28;92665;-66
2021/09/24 02:02:59;;;;;;;1.60;0.73;;;13.40;99.90;13.50;100231.00;;;;4975833;28;93003;-67
2021/09/24 02:05:25;;;;;;;2.07;1.37;;;13.40;99.90;13.50;100245.00;;;;4973840;28;122771;-66
2021/09/24 02:07:51;;;;;;;6.60;1.60;;;13.40;99.90;13.50;100255.00;;;;4974913;28;94321;-67
2021/09/24 02:10:17;;;;;;;1.47;1.07;;;13.40;99.90;13.50;100247.00;;;;4974690;28;110577;-67
2021/09/24 02:12:42;;;;;;;2.50;0.93;;;13.40;99.90;13.50;100255.00;;;;4973799;28;109598;-67
2021/09/24 02:15:09;;;;;;;5.50;0.83;;;13.40;99.90;13.40;100265.00;;;;4973799;28;123736;-66
2021/09/24 02:17:35;;;;;;;5.37;1.53;;;13.40;99.90;13.40;100258.00;;;;4957218;28;93503;-67
2021/09/24 02:20:02;;;;;;;6.13;1.40;;;13.40;99.90;13.40;100257.00;;;;4955278;28;110248;-67
2021/09/24 02:22:27;;;;;;;7.63;1.63;;;13.40;99.90;13.40;100264.00;;;;4974997;28;92021;-67
2021/09/24 02:24:53;;;;;;;3.70;1.57;;;13.30;99.90;13.30;100267.00;;;;4974617;28;93294;-67
2021/09/24 02:27:19;;;;;;;7.03;2.23;;;13.30;99.90;13.30;100262.00;;;;4973819;28;123178;-68
2021/09/24 02:29:45;;;;;;;4.43;1.43;;;13.30;99.90;13.20;100265.00;;;;4974102;28;110294;-67
2021/09/24 02:32:10;;;;;;;1.83;1.00;;;13.20;99.90;13.20;100273.00;;;;4974846;28;93009;-67
2021/09/24 02:34:36;;;;;;;5.03;1.33;;;13.20;99.90;13.10;100277.00;;;;4972110;28;97874;-67
2021/09/24 02:37:02;;;;;;;2.80;1.43;;;13.10;99.90;13.10;100277.00;;;;4973156;28;102933;-67
2021/09/24 02:39:27;;;;;;;9.93;1.67;;;13.10;99.90;13.10;100274.00;;;;4974185;28;92862;-67
2021/09/24 02:41:53;;;;;;;3.83;1.43;;;13.00;99.90;13.00;100287.00;;;;4974620;28;109041;-67
2021/09/24 02:44:19;;;;;;;7.40;1.57;;;13.00;99.90;13.00;100294.00;;;;4984318;28;122826;-67
2021/09/24 02:46:45;;;;;;;3.17;1.30;;;13.00;99.90;13.00;100294.00;;;;4983187;28;92869;-67
2021/09/24 02:49:11;;;;;;;2.27;1.27;;;12.90;99.90;12.90;100300.00;;;;4972875;28;110166;-69
2021/09/24 02:51:36;;;;;;;3.97;1.03;;;12.90;99.90;12.90;100298.00;;;;4974153;28;109098;-67
2021/09/24 02:54:03;;;;;;;1.67;1.20;;;12.90;99.90;12.80;100293.00;;;;4970822;28;122682;-67
2021/09/24 02:56:28;;;;;;;12.63;2.20;;;12.80;99.90;12.80;100299.00;;;;4974349;28;94089;-66
2021/09/24 02:58:54;;;;;;;1.70;1.17;;;12.80;99.90;12.70;100288.00;;;;4974345;28;92783;-66
2021/09/24 03:01:20;;;;;;;3.17;1.47;;;12.70;99.90;12.70;100290.00;;;;4974470;28;93334;-67
2021/09/24 03:03:45;;;;;;;6.83;1.50;;;12.70;99.90;12.70;100301.00;;;;4973110;28;110917;-67
2021/09/24 03:06:11;;;;;;;4.80;1.83;;;12.60;99.90;12.60;100307.00;;;;4973509;28;121873;-67
2021/09/24 03:08:37;;;;;;;6.63;1.73;;;12.50;99.90;12.60;100309.00;;;;4955995;28;93168;-66
2021/09/24 03:11:03;;;;;;;4.60;1.63;;;12.50;99.90;12.60;100307.00;;;;4974275;28;94279;-66
2021/09/24 03:13:29;;;;;;;10.37;2.17;;;12.60;99.90;12.60;100307.00;;;;4973709;28;94112;-66
2021/09/24 03:15:55;;;;;;;7.80;2.13;;;12.50;99.90;12.60;100316.00;;;;4974195;28;93724;-66
2021/09/24 03:18:21;;;;;;;10.07;1.63;;;12.50;99.90;12.60;100317.00;;;;4973461;28;93626;-67
2021/09/24 03:20:47;;;;;;;5.33;1.60;;;12.50;99.90;12.50;100313.00;;;;4974534;28;92936;-66
2021/09/24 03:23:13;;;;;;;5.13;2.00;;;12.50;99.90;12.50;100316.00;;;;4973451;28;94007;-66
2021/09/24 03:25:39;;;;;;;6.10;2.73;;;12.50;99.90;12.50;100318.00;;;;4972516;28;123282;-67
2021/09/24 03:28:05;;;;;;;6.37;2.70;;;12.50;99.90;12.40;100325.00;;;;4970644;28;109545;-67
2021/09/24 03:30:31;;;;;;;9.03;1.77;;;12.40;99.90;12.40;100332.00;;;;4973010;28;107350;-67
2021/09/24 03:32:57;;;;;;;3.87;1.57;;;12.40;99.90;12.40;100337.00;;;;4972347;28;123298;-67
2021/09/24 03:35:22;;;;;;;7.03;1.83;;;12.30;99.90;12.30;100342.00;;;;4973308;28;121146;-66
2021/09/24 03:37:48;;;;;;;3.47;1.63;;;12.30;99.90;12.30;100333.00;;;;4953040;28;110986;-66
2021/09/24 03:40:14;;;;;;;6.27;1.70;;;12.30;99.90;12.30;100332.00;;;;4973218;28;108414;-66
2021/09/24 03:42:41;;;;;;;4.27;1.60;;;12.30;99.90;12.20;100330.00;;;;4972324;28;94776;-65
2021/09/24 03:45:08;;;;;;;6.10;1.13;;;12.30;99.90;12.20;100324.00;;;;4973801;28;94247;-66
2021/09/24 03:47:35;;;;;;;4.30;1.57;;;12.20;99.90;12.20;100338.00;;;;4974116;28;93129;-67
2021/09/24 03:50:01;;;;;;;9.97;1.80;;;12.20;99.90;12.20;100335.00;;;;4973944;28;92873;-67
2021/09/24 03:52:27;;;;;;;8.33;1.60;;;12.20;99.90;12.10;100340.00;;;;4972217;28;122681;-65
2021/09/24 03:54:52;;;;;;;8.57;1.67;;;12.20;99.90;12.10;100341.00;;;;4973690;28;93314;-67
2021/09/24 03:57:18;;;;;;;4.87;1.70;;;12.10;99.90;12.10;100341.00;;;;4972873;28;111303;-66
2021/09/24 03:59:44;;;;;;;7.23;2.40;;;12.10;99.90;12.10;100345.00;;;;4973203;28;108402;-66
2021/09/24 04:02:09;;;;;;;5.07;1.70;;;12.10;99.90;12.10;100344.00;;;;4973396;28;101295;-66
2021/09/24 04:04:35;;;;;;;6.27;2.03;;;12.10;99.90;12.10;100354.00;;;;4971548;28;123698;-65
2021/09/24 04:07:01;;;;;;;4.37;1.60;;;12.00;99.90;12.00;100344.00;;;;4972851;28;108750;-67
2021/09/24 04:09:26;;;;;;;11.43;1.87;;;12.00;99.90;12.00;100349.00;;;;4973235;28;93582;-67
2021/09/24 04:11:52;;;;;;;3.50;1.70;;;12.00;99.90;12.00;100352.00;;;;4971716;28;123701;-68
2021/09/24 04:14:17;;;;;;;2.20;1.67;;;12.00;99.90;12.00;100351.00;;;;4971984;28;120077;-68
2021/09/24 04:16:43;;;;;;;5.80;1.97;;;12.00;99.90;12.00;100344.00;;;;4974243;28;93104;-68
2021/09/24 04:19:09;;;;;;;1.60;1.23;;;12.00;99.90;12.00;100338.00;;;;4972594;28;108569;-67
2021/09/24 04:21:34;;;;;;;7.20;2.03;;;12.00;99.90;12.00;100346.00;;;;4972304;28;122006;-66
2021/09/24 04:24:00;;;;;;;9.13;2.00;;;12.00;99.90;12.00;100341.00;;;;4972383;28;122485;-67
2021/09/24 04:26:26;;;;;;;6.23;1.97;;;12.00;99.90;11.90;100350.00;;;;4972536;28;111730;-67
2021/09/24 04:28:52;;;;;;;4.03;1.43;;;11.90;99.90;11.90;100351.00;;;;4972595;28;107281;-66
2021/09/24 04:31:18;;;;;;;5.87;1.50;;;11.90;99.90;11.90;100360.00;;;;4972013;28;95214;-67
2021/09/24 04:33:44;;;;;;;7.97;1.60;;;11.80;99.90;11.90;100353.00;;;;4972984;28;94105;-67
2021/09/24 04:36:10;;;;;;;8.37;2.23;;;11.90;99.90;11.90;100361.00;;;;4970060;28;111815;-66
2021/09/24 04:38:35;;;;;;;3.10;1.83;;;11.80;99.90;11.80;100366.00;;;;4973593;28;93829;-66
2021/09/24 04:41:01;;;;;;;14.13;2.77;;;11.80;99.90;11.80;100370.00;;;;4971995;28;124169;-67
2021/09/24 04:43:27;;;;;;;9.33;1.57;;;11.80;99.90;11.80;100370.00;;;;4971785;28;111934;-66
2021/09/24 04:45:53;;;;;;;9.57;1.80;;;11.80;99.90;11.80;100371.00;;;;4972546;28;110055;-66
2021/09/24 04:48:19;;;;;;;8.00;1.83;;;11.80;99.90;11.80;100376.00;;;;4971890;28;108234;-65
2021/09/24 04:50:44;;;;;;;2.13;1.63;;;11.80;99.90;11.80;100378.00;;;;4971159;28;122081;-65
2021/09/24 04:53:10;;;;;;;6.47;2.17;;;11.80;99.90;11.80;100373.00;;;;4969420;28;123250;-66
2021/09/24 04:55:36;;;;;;;15.90;2.70;;;11.70;99.90;11.80;100375.00;;;;4971783;28;110252;-66
2021/09/24 04:58:01;;;;;;;11.20;1.67;;;11.80;99.90;11.80;100375.00;;;;4972924;28;92914;-65
2021/09/24 05:00:27;;;;;;;4.47;1.27;;;11.80;99.90;11.80;100376.00;;;;4974872;28;121216;-66
2021/09/24 05:02:53;;;;;;;6.90;1.97;;;11.80;99.90;11.80;100377.00;;;;4975228;28;93914;-66
2021/09/24 05:05:19;;;;;;;4.97;1.77;;;11.80;99.90;11.80;100378.00;;;;4976527;28;93041;-67
2021/09/24 05:07:46;;;;;;;5.30;1.03;;;11.80;99.90;11.80;100380.00;;;;4975298;28;101048;-67
2021/09/24 05:10:11;;;;;;;9.43;2.50;;;11.80;99.90;11.80;100382.00;;;;4975904;28;93249;-68
2021/09/24 05:12:37;;;;;;;6.30;1.47;;;11.80;99.90;11.80;100370.00;;;;4974819;28;122401;-65
2021/09/24 05:15:03;;;;;;;4.93;2.60;;;11.80;99.90;11.80;100383.00;;;;4974760;28;110875;-65
2021/09/24 05:17:29;;;;;;;4.77;2.30;;;11.80;99.90;11.80;100381.00;;;;4976653;28;92748;-66
2021/09/24 05:19:55;;;;;;;8.80;1.83;;;11.80;99.90;11.80;100382.00;;;;4974689;28;95005;-65
2021/09/24 05:22:21;;;;;;;4.20;2.00;;;11.80;99.90;11.80;100382.00;;;;4974485;28;122681;-65
2021/09/24 05:24:46;;;;;;;8.30;2.20;;;11.80;99.90;11.80;100385.00;;;;4975413;28;92792;-66
2021/09/24 05:27:12;;;;;;;17.37;2.33;;;11.80;99.90;11.80;100393.00;;;;4974727;28;109185;-65
2021/09/24 05:29:38;;;;;;;3.10;1.37;;;11.80;99.90;11.80;100391.00;;;;4973811;28;123284;-66
2021/09/24 05:32:04;;;;;;;1.07;0.97;;;11.80;99.90;11.80;100397.00;;;;4975903;28;92991;-66
2021/09/24 05:34:30;;;;;;;5.57;2.63;;;11.80;99.90;11.80;100394.00;;;;4975365;28;92669;-68
2021/09/24 05:36:55;;;;;;;8.40;2.20;;;11.80;99.90;11.80;100405.00;;;;4976484;28;91948;-67
2021/09/24 05:39:21;;;;;;;1.73;1.50;;;11.80;99.90;11.80;100395.00;;;;4974175;28;120252;-67
2021/09/24 05:41:47;;;;;;;5.13;1.77;;;11.80;99.90;11.90;100403.00;;;;4974455;28;117673;-67
2021/09/24 05:44:12;;;;;;;5.67;2.03;;;11.80;99.90;11.90;100413.00;;;;4973840;28;111287;-67
2021/09/24 05:46:41;;;;;;;3.70;1.57;;;11.80;99.90;11.90;100412.00;;;;4975792;28;92993;-67
2021/09/24 05:49:07;;;;;;;4.00;1.60;;;11.90;99.90;12.00;100405.00;;;;4974825;28;94065;-66
2021/09/24 05:51:33;;;;;;;4.13;1.47;;;11.90;99.90;12.00;100414.00;;;;4975520;28;99707;-67
2021/09/24 05:53:59;;;;;;;4.33;2.13;;;11.90;99.90;12.10;100417.00;;;;4975009;28;93001;-67
2021/09/24 05:56:24;;;;;;;3.20;1.50;;;12.00;99.90;12.10;100416.00;;;;4975973;28;92892;-68
2021/09/24 05:58:50;;;;;;;8.73;1.90;;;12.10;99.90;12.10;100414.00;;;;4970653;28;97907;-68
2021/09/24 06:01:16;;;;;;;4.57;1.80;;;12.10;99.90;12.20;100419.00;;;;4974194;28;123706;-67
2021/09/24 06:03:41;;;;;;;2.80;1.43;;;12.10;99.90;12.20;100422.00;;;;4975643;28;92890;-68
2021/09/24 06:06:07;;;;;;;5.70;1.73;;;12.20;99.90;12.30;100426.00;;;;4974918;28;108273;-67
2021/09/24 06:08:33;;;;;;;12.23;3.33;;;12.30;99.90;12.50;100420.00;;;;4973301;28;111501;-67
2021/09/24 06:10:59;;;;;;;6.93;2.63;;;12.40;99.90;12.70;100427.00;;;;4973201;28;93059;-67
2021/09/24 06:13:24;;;;;;;4.00;1.67;;;12.50;99.90;12.80;100425.00;;;;4974139;28;110441;-67
2021/09/24 06:15:53;;;;;;;10.17;2.37;;;12.70;99.90;12.90;100426.00;;;;4975076;28;102368;-67
2021/09/24 06:18:19;;;;;;;13.03;2.23;;;12.80;99.90;13.00;100426.00;;;;4975022;28;92848;-68
2021/09/24 06:20:45;;;;;;;7.63;2.20;;;12.90;99.90;13.10;100436.00;;;;4956024;28;101188;-67
2021/09/24 06:23:10;;;;;;;4.57;1.60;;;13.10;99.90;13.20;100431.00;;;;4967343;28;109483;-67
2021/09/24 06:25:36;;;;;;;5.37;1.77;;;13.10;99.90;13.20;100422.00;;;;4973357;28;107737;-68
2021/09/24 06:28:02;;;;;;;4.73;1.83;;;13.10;99.90;13.20;100420.00;;;;4973065;28;122044;-66
2021/09/24 06:30:28;;;;;;;9.93;1.40;;;13.20;99.90;13.30;100423.00;;;;4974686;28;93172;-67
2021/09/24 06:32:54;;;;;;;5.20;1.83;;;13.20;99.90;13.30;100426.00;;;;4973921;28;93834;-67
2021/09/24 06:35:21;;;;;;;9.33;2.20;;;13.30;99.90;13.40;100430.00;;;;4974700;28;93185;-67
2021/09/24 06:37:47;;;;;;;4.57;2.33;;;13.30;99.90;13.50;100442.00;;;;4975007;28;93077;-67
2021/09/24 06:40:14;;;;;;;9.67;2.20;;;13.40;99.90;13.70;100437.00;;;;4979318;28;123617;-66
2021/09/24 06:42:40;;;;;;;6.57;1.90;;;13.60;99.90;13.90;100445.00;;;;4985775;28;92784;-66
2021/09/24 06:45:11;;;;;;;4.50;1.73;;;13.70;99.90;14.00;100443.00;;;;4979127;28;92677;-67
2021/09/24 06:47:37;;;;;;;6.57;2.10;;;13.90;99.90;14.20;100446.00;;;;4974802;28;93578;-67
2021/09/24 06:50:03;;;;;;;7.30;1.73;;;14.10;99.90;14.30;100445.00;;;;4974714;28;93672;-67
2021/09/24 06:52:31;;;;;;;2.77;1.53;;;14.20;99.90;14.50;100451.00;;;;4974525;28;97044;-67
2021/09/24 06:54:57;;;;;;;7.80;2.37;;;14.40;99.90;14.70;100452.00;;;;4974538;28;92695;-66
2021/09/24 06:57:23;;;;;;;6.10;1.50;;;14.50;99.90;14.80;100454.00;;;;4973856;28;94445;-66
2021/09/24 06:59:49;;;;;;;2.67;1.67;;;14.70;99.90;15.00;100452.00;;;;4972802;28;124131;-67
2021/09/24 07:02:14;;;;;;;6.80;1.83;;;14.80;99.90;15.20;100448.00;;;;4974328;28;110459;-67
2021/09/24 07:04:40;;;;;;;6.07;1.97;;;15.00;99.90;15.30;100447.00;;;;4973384;28;108710;-68
2021/09/24 07:07:06;;;;;;;13.67;1.60;;;15.30;99.90;15.40;100454.00;;;;4974022;28;92780;-66
2021/09/24 07:09:32;;;;;;;7.33;1.70;;;15.30;99.90;15.50;100457.00;;;;4973977;28;93257;-67
2021/09/24 07:11:58;;;;;;;7.82;1.83;;;15.40;99.90;15.70;100462.00;;;;4973701;28;100683;-67
2021/09/24 07:14:23;;;;;;;9.05;2.25;;;15.60;99.90;15.80;100463.00;;;;4965234;28;107788;-66
2021/09/24 07:16:49;;;;;;;6.93;2.03;;;15.70;99.90;15.90;100466.00;;;;4973436;28;110077;-67
2021/09/24 07:19:16;;;;;;;6.03;1.73;;;15.80;99.90;15.90;100480.00;;;;4973696;28;92967;-66
2021/09/24 07:21:42;;;;;;;3.63;1.92;;;15.90;99.90;16.10;100473.00;;;;4973216;28;93947;-66
2021/09/24 07:24:09;;;;;;;6.60;2.33;;;16.00;99.90;16.10;100452.00;;;;4973845;28;92711;-66
2021/09/24 07:26:35;;;;;;;10.95;2.03;;;16.00;99.90;16.20;100469.00;;;;4974056;28;94104;-67
2021/09/24 07:29:01;;;;;;;7.38;1.50;;;16.10;99.90;16.10;100467.00;;;;4973953;28;93789;-67
2021/09/24 07:31:27;;;;;;;7.10;1.75;;;16.10;99.90;16.30;100474.00;;;;4973586;28;95463;-67
2021/09/24 07:33:53;;;;;;;2.95;1.60;;;16.20;99.90;16.40;100479.00;;;;4973748;28;92965;-67
2021/09/24 07:36:19;;;;;;;6.18;1.90;;;16.30;99.90;16.50;100481.00;;;;4973271;28;111104;-67
2021/09/24 07:38:50;;;;;;;3.53;1.73;;;16.40;99.90;16.60;100482.00;;;;4973477;28;101014;-66
2021/09/24 07:41:17;;;;;;;11.75;2.10;;;16.50;99.90;16.60;100486.00;;;;4974281;28;92992;-66
2021/09/24 07:43:46;;;;;;;4.30;1.67;;;16.60;99.90;16.60;100480.00;;;;4973794;28;93072;-68
2021/09/24 07:46:12;;;;;;;3.97;1.75;;;16.50;99.90;16.70;100486.00;;;;4951581;28;94105;-67
2021/09/24 07:48:41;;;;;;;7.07;1.98;;;16.60;99.90;16.70;100489.00;;;;4972260;28;94446;-66
2021/09/24 07:51:06;;;;;;;3.17;1.73;;;16.60;98.80;16.80;100486.00;;;;4973437;28;92897;-66
2021/09/24 07:53:32;;;;;;;2.80;1.67;;;16.70;98.00;16.80;100489.00;;;;4973003;28;108819;-67
2021/09/24 07:55:58;;;;;;;7.32;2.38;;;16.70;98.30;16.80;100496.00;;;;4972926;28;109491;-67
2021/09/24 07:58:24;;;;;;;7.93;1.77;;;16.70;97.80;16.90;100486.00;;;;4972763;28;92699;-67
2021/09/24 08:00:50;;;;;;;6.55;1.40;;;16.80;97.10;17.10;100482.00;;;;4973428;28;92749;-67
2021/09/24 08:03:15;;;;;;;3.38;1.35;;;16.90;97.20;17.30;100496.00;;;;4973697;28;92071;-66
2021/09/24 08:05:41;;;;;;;3.38;1.73;;;17.10;97.20;17.50;100502.00;;;;4973389;28;105455;-66
2021/09/24 08:08:07;;;;;;;4.13;1.65;;;17.30;96.40;17.70;100506.00;;;;4973939;28;93193;-67
2021/09/24 08:10:32;;;;;;;4.25;1.70;;;17.50;95.00;17.80;100497.00;;;;4972448;28;99551;-67
2021/09/24 08:12:58;;;;;;;3.97;1.55;;;17.70;93.80;17.90;100512.00;;;;4964269;28;107698;-67
2021/09/24 08:15:24;;;;;;;3.92;1.75;;;17.80;92.90;18.00;100481.00;;;;4972760;28;123953;-70
2021/09/24 08:17:52;;;;;;;5.70;1.73;;;17.90;92.20;18.20;100507.00;;;;4953918;28;104261;-70
2021/09/24 08:20:19;;;;;;;1.35;1.10;;;18.00;92.10;18.30;100500.00;;;;4973591;28;92717;-70
2021/09/24 08:22:45;;;;;;;2.72;1.65;;;18.20;90.10;18.30;100500.00;;;;4973116;28;92894;-71
2021/09/24 08:25:16;;;;;;;2.33;1.30;;;18.30;88.70;18.40;100507.00;;;;4971553;28;122337;-70
2021/09/24 08:27:43;;;;;;;9.98;1.65;;;18.20;89.50;18.30;100503.00;;;;4973064;28;104759;-69
2021/09/24 08:30:13;;;;;;;1.10;1.00;;;18.30;88.20;18.30;100512.00;;;;4971497;28;92611;-71
2021/09/24 08:32:39;;;;;;;2.90;0.93;;;18.30;85.10;18.30;100513.00;;;;4937603;28;92933;-71
2021/09/24 08:35:10;;;;;;;7.07;1.55;;;18.20;86.70;18.50;100516.00;;;;4974948;28;94980;-69
2021/09/24 08:37:37;;;;;;;7.15;2.13;;;18.30;87.70;18.60;100508.00;;;;4976532;28;94017;-70
2021/09/24 08:40:07;;;;;;;3.72;1.42;;;18.40;87.00;18.70;100511.00;;;;4976600;28;92907;-70
2021/09/24 08:42:37;;;;;;;3.88;1.77;;;18.60;86.00;18.80;100503.00;;;;4957686;28;92866;-69
2021/09/24 08:45:03;;;;;;;5.32;1.38;;;18.60;84.60;18.90;100511.00;;;;4976524;28;93971;-71
2021/09/24 08:47:29;;;;;;;7.88;1.63;;;18.70;82.80;19.10;100499.00;;;;4975901;28;93856;-70
2021/09/24 08:49:55;;;;;;;4.38;1.17;;;18.90;81.00;19.20;100510.00;;;;4956651;28;110913;-71
2021/09/24 08:52:20;;;;;;;3.53;0.80;;;19.00;79.60;19.40;100518.00;;;;4976461;28;91864;-70
2021/09/24 08:54:46;;;;;;;4.38;1.65;;;19.20;79.90;19.50;100513.00;;;;4975213;28;122556;-71
2021/09/24 08:57:16;;;;;;;3.92;1.50;;;19.40;75.20;19.50;100503.00;;;;4973065;28;120409;-71
2021/09/24 08:59:42;;;;;;;3.50;1.63;;;19.40;73.80;19.50;100506.00;;;;4975751;28;93728;-71
2021/09/24 09:02:09;;;;;;;3.65;1.02;;;19.40;71.40;19.50;100511.00;;;;4976417;28;92936;-69
2021/09/24 09:04:42;;;;;;;4.10;1.15;;;19.30;71.70;19.50;100508.00;;;;4974590;28;123640;-71
2021/09/24 09:07:20;;;;;;;2.92;1.10;;;19.40;72.20;19.60;100502.00;;;;4976109;28;92834;-70
2021/09/24 09:09:50;;;;;;;5.00;1.80;;;19.50;73.00;19.80;100509.00;;;;4975482;28;93109;-71
2021/09/24 09:12:20;;;;;;;1.05;0.93;;;19.60;73.00;19.90;100514.00;;;;4957978;28;93139;-70
2021/09/24 09:15:08;;;;;;;4.57;1.80;;;19.70;72.70;20.10;100510.00;;;;4975806;28;93878;-70
2021/09/24 09:17:44;;;;;;;2.10;0.88;;;19.90;68.40;20.10;100513.00;;;;4957527;28;94452;-70
2021/09/24 09:20:17;;;;;;;1.92;0.65;;;20.00;66.90;19.90;100516.00;;;;4976104;28;92806;-70
2021/09/24 09:22:48;;;;;;;4.13;1.23;;;19.80;66.20;19.80;100526.00;;;;4975118;28;92703;-72
2021/09/24 09:25:28;;;;;;;4.85;1.15;;;19.70;66.90;19.50;100533.00;;;;4972038;28;95304;-72
2021/09/24 09:27:56;;;;;;;2.67;0.98;;;19.60;67.10;19.50;100532.00;;;;4974724;28;93620;-72
2021/09/24 09:30:23;;;;;;;1.83;0.80;;;19.40;68.50;19.40;100526.00;;;;4975520;28;92731;-72
2021/09/24 09:33:08;;;;;;;4.47;1.27;;;19.30;69.20;19.70;100528.00;;;;4957663;28;92915;-71
2021/09/24 09:35:41;;;;;;;4.30;1.33;;;19.50;70.20;19.80;100534.00;;;;4973629;28;94909;-70
2021/09/24 09:38:29;;;;;;;7.47;1.70;;;19.60;69.70;19.80;100525.00;;;;4956580;28;95483;-70
2021/09/24 09:41:14;;;;;;;1.15;0.73;;;19.60;69.10;19.70;100520.00;;;;4966120;28;92677;-71
2021/09/24 09:43:51;;;;;;;2.75;1.23;;;19.60;68.60;19.50;100529.00;;;;4958739;28;92472;-70
2021/09/24 09:46:24;;;;;;;1.70;1.02;;;19.40;68.80;19.40;100537.00;;;;4956077;28;93419;-71
2021/09/24 09:49:11;;;;;;;6.40;1.67;;;19.30;69.90;19.20;100538.00;;;;4974637;28;93060;-70
2021/09/24 09:51:41;;;;;;;6.25;1.48;;;19.10;69.90;19.00;100546.00;;;;4975362;28;93881;-70
2021/09/24 09:54:10;;;;;;;5.43;1.17;;;18.90;70.70;18.80;100546.00;;;;4974982;28;92609;-71
2021/09/24 09:56:42;;;;;;;2.88;1.10;;;18.80;71.80;18.70;100559.00;;;;4973908;28;93116;-71
2021/09/24 09:59:31;;;;;;;2.30;1.08;;;18.60;72.40;18.50;100551.00;;;;4974121;28;93637;-71
2021/09/24 10:02:21;;;;;;;1.83;1.15;;;18.50;73.40;18.30;100552.00;;;;4975427;28;92938;-71
2021/09/24 10:04:53;;;;;;;1.98;1.33;;;18.30;74.70;18.20;100552.00;;;;4956431;28;92943;-70
2021/09/24 10:07:22;;;;;;;4.32;1.45;;;18.10;75.30;18.10;100542.00;;;;4965214;28;93094;-70
2021/09/24 10:10:13;;;;;;;2.25;1.25;;;18.00;76.70;17.90;100556.00;;;;4974436;28;104064;-70
2021/09/24 10:12:42;;;;;;;1.08;0.80;;;17.90;77.70;17.80;100550.00;;;;4973601;28;92893;-70
2021/09/24 10:15:11;;;;;;;2.75;1.02;;;17.70;79.00;17.80;100557.00;;;;4974700;28;92894;-70
2021/09/24 10:17:37;;;;;;;2.17;1.08;;;17.70;80.10;17.70;100556.00;;;;4972606;28;94036;-70
2021/09/24 10:20:06;;;;;;;5.53;0.93;;;17.60;81.00;17.60;100563.00;;;;4967162;28;93109;-71
2021/09/24 10:22:32;;;;;;;3.47;1.30;;;17.50;82.00;17.60;100561.00;;;;4975479;28;92684;-70
2021/09/24 10:24:58;;;;;;;1.45;0.75;;;17.50;82.80;17.60;100566.00;;;;4987412;28;92706;-71
2021/09/24 10:27:28;;;;;;;1.67;0.90;;;17.40;83.50;17.50;100568.00;;;;4976761;28;123822;-72
2021/09/24 10:29:57;;;;;;;1.55;1.02;;;17.40;84.60;17.50;100559.00;;;;4957633;28;103916;-71
2021/09/24 10:32:28;;;;;;;6.80;1.50;;;17.40;85.40;17.60;100555.00;;;;4956224;28;92630;-71
2021/09/24 10:35:07;;;;;;;1.95;1.05;;;17.40;86.40;17.80;100550.00;;;;4974926;28;92193;-70
2021/09/24 10:37:36;;;;;;;1.48;0.68;;;17.50;87.10;18.00;100556.00;;;;4939606;28;95604;-70
2021/09/24 10:40:26;;;;;;;3.30;1.45;;;17.70;87.30;18.20;100549.00;;;;4957163;28;93042;-69
2021/09/24 10:43:03;;;;;;;4.30;0.90;;;17.90;87.70;18.40;100551.00;;;;4955974;28;93716;-70
2021/09/24 10:45:41;;;;;;;1.17;0.50;;;18.10;87.70;18.70;100549.00;;;;4975143;28;92700;-71